createdAt,value
2018-08-18T00:00:20.168Z,8.33
2018-08-18T00:02:49.043Z,7.47
2018-08-18T00:05:18.700Z,7.90
2018-08-18T00:07:47.718Z,7.80
2018-08-18T00:10:20.172Z,8.17
2018-08-18T00:12:49.092Z,7.50
2018-08-18T00:15:18.043Z,7.17
2018-08-18T00:17:47.119Z,6.37
2018-08-18T00:20:18.068Z,7.90
2018-08-18T00:22:47.276Z,7.60
2018-08-18T00:25:16.205Z,7.60
2018-08-18T00:27:45.050Z,7.27
2018-08-18T00:30:19.176Z,7.83
2018-08-18T00:32:48.099Z,7.43
2018-08-18T00:35:17.044Z,7.90
2018-08-18T00:37:46.488Z,7.60
2018-08-18T00:40:15.447Z,7.83
2018-08-18T00:42:44.296Z,7.70
2018-08-18T00:45:14.101Z,8.33
2018-08-18T00:47:43.026Z,7.30
2018-08-18T00:50:13.696Z,7.87
2018-08-18T00:52:42.756Z,8.03
2018-08-18T00:55:11.720Z,7.70
2018-08-18T00:57:40.750Z,7.70
2018-08-18T01:00:09.655Z,7.53
2018-08-18T01:02:38.496Z,8.07
2018-08-18T01:05:07.474Z,7.50
2018-08-18T01:07:36.428Z,8.03
2018-08-18T01:10:05.596Z,8.07
2018-08-18T01:12:35.313Z,8.33
2018-08-18T01:15:04.228Z,8.03
2018-08-18T01:17:33.176Z,8.37
2018-08-18T01:20:02.061Z,7.97
2018-08-18T01:22:30.969Z,7.60
2018-08-18T01:24:59.823Z,8.33
2018-08-18T01:27:29.633Z,7.53
2018-08-18T01:30:04.491Z,7.10
2018-08-18T01:32:33.860Z,8.03
2018-08-18T01:35:02.761Z,8.87
2018-08-18T01:37:32.991Z,8.00
2018-08-18T01:40:02.160Z,8.33
2018-08-18T01:42:32.940Z,8.90
2018-08-18T01:45:01.904Z,8.60
2018-08-18T01:47:31.034Z,8.30
2018-08-18T01:50:04.368Z,8.13
2018-08-18T01:52:34.054Z,7.80
2018-08-18T01:55:03.065Z,7.27
2018-08-18T01:57:31.996Z,7.50
2018-08-18T02:00:05.539Z,7.30
2018-08-18T02:02:34.537Z,7.20
2018-08-18T02:05:12.299Z,7.00
2018-08-18T02:07:41.551Z,6.47
2018-08-18T02:10:10.457Z,6.93
2018-08-18T02:12:40.923Z,7.63
2018-08-18T02:15:09.760Z,8.10
2018-08-18T02:17:38.966Z,7.70
2018-08-18T02:20:09.581Z,7.07
2018-08-18T02:22:38.440Z,7.20
2018-08-18T02:25:07.423Z,7.50
2018-08-18T02:27:36.518Z,7.73
2018-08-18T02:30:17.525Z,7.40
2018-08-18T02:32:46.379Z,8.47
2018-08-18T02:35:15.356Z,7.10
2018-08-18T02:37:45.618Z,8.17
2018-08-18T02:40:16.259Z,7.30
2018-08-18T02:42:45.184Z,7.57
2018-08-18T02:45:14.965Z,7.90
2018-08-18T02:47:43.844Z,6.90
2018-08-18T02:50:13.838Z,7.37
2018-08-18T02:52:42.798Z,8.13
2018-08-18T02:55:12.432Z,8.70
2018-08-18T02:57:42.601Z,8.43
2018-08-18T03:00:14.063Z,8.00
2018-08-18T03:02:42.936Z,7.97
2018-08-18T03:05:11.851Z,8.70
2018-08-18T03:07:45.466Z,8.60
2018-08-18T03:10:19.432Z,7.83
2018-08-18T03:12:48.307Z,8.00
2018-08-18T03:16:19.855Z,7.97
2018-08-18T03:18:50.079Z,10.50
2018-08-18T03:21:20.340Z,8.63
2018-08-18T03:24:00.159Z,8.90
2018-08-18T03:26:48.904Z,9.00
2018-08-18T03:29:18.426Z,8.20
2018-08-18T03:31:47.656Z,8.90
2018-08-18T03:34:16.751Z,9.60
2018-08-18T03:36:48.128Z,8.77
2018-08-18T03:39:29.672Z,8.23
2018-08-18T03:41:59.864Z,9.10
2018-08-18T03:44:28.805Z,15.37
2018-08-18T03:46:57.647Z,8.27
2018-08-18T03:49:27.088Z,8.20
2018-08-18T03:51:56.564Z,8.77
2018-08-18T03:54:25.574Z,8.67
2018-08-18T03:56:54.608Z,8.47
2018-08-18T03:59:23.516Z,9.23
2018-08-18T04:01:53.735Z,8.97
2018-08-18T04:04:23.722Z,9.83
2018-08-18T04:06:53.823Z,8.90
2018-08-18T04:09:24.752Z,9.00
2018-08-18T04:11:53.817Z,8.60
2018-08-18T04:14:30.812Z,8.70
2018-08-18T04:16:59.753Z,9.60
2018-08-18T04:19:28.760Z,8.90
2018-08-18T04:21:57.796Z,9.27
2018-08-18T04:24:32.304Z,9.70
2018-08-18T04:27:01.767Z,10.17
2018-08-18T04:29:31.965Z,10.27
2018-08-18T04:32:01.600Z,9.77
2018-08-18T04:34:30.646Z,9.03
2018-08-18T04:37:00.570Z,10.50
2018-08-18T04:39:29.668Z,8.80
2018-08-18T04:41:58.575Z,11.10
2018-08-18T04:44:27.480Z,10.37
2018-08-18T04:46:56.419Z,10.23
2018-08-18T04:49:25.272Z,9.83
2018-08-18T04:51:54.160Z,9.73
2018-08-18T04:54:23.120Z,11.43
2018-08-18T04:56:52.228Z,10.90
2018-08-18T04:59:22.562Z,10.47
2018-08-18T05:01:51.392Z,10.70
2018-08-18T05:04:20.228Z,10.47
2018-08-18T05:06:49.129Z,9.43
2018-08-18T05:09:18.040Z,9.97
2018-08-18T05:11:47.043Z,9.10
2018-08-18T05:14:15.835Z,9.27
2018-08-18T05:16:44.746Z,8.93
2018-08-18T05:19:13.677Z,9.30
2018-08-18T05:21:42.649Z,8.93
2018-08-18T05:24:23.323Z,8.77
2018-08-18T05:26:53.295Z,9.27
2018-08-18T05:29:22.374Z,8.97
2018-08-18T05:31:51.356Z,8.87
2018-08-18T05:34:20.208Z,9.17
2018-08-18T05:36:49.063Z,8.37
2018-08-18T05:39:18.069Z,8.40
2018-08-18T05:41:46.973Z,8.93
2018-08-18T05:44:15.815Z,8.33
2018-08-18T05:46:44.736Z,9.23
2018-08-18T05:49:16.393Z,8.33
2018-08-18T05:51:47.538Z,8.23
2018-08-18T05:54:18.640Z,8.70
2018-08-18T05:56:47.511Z,9.27
2018-08-18T05:59:16.495Z,8.23
2018-08-18T06:01:45.558Z,8.20
2018-08-18T06:04:15.778Z,8.13
2018-08-18T06:06:45.653Z,8.23
2018-08-18T06:09:15.650Z,8.73
2018-08-18T06:11:44.703Z,8.50
2018-08-18T06:14:14.078Z,7.87
2018-08-18T06:16:43.456Z,7.83
2018-08-18T06:19:12.316Z,7.17
2018-08-18T06:21:41.240Z,8.47
2018-08-18T06:24:11.036Z,8.83
2018-08-18T06:26:40.023Z,7.77
2018-08-18T06:29:08.884Z,7.30
2018-08-18T06:32:14.369Z,8.20
2018-08-18T06:34:44.357Z,7.70
2018-08-18T06:37:13.281Z,7.03
2018-08-18T06:39:53.688Z,27.07
2018-08-18T06:42:36.564Z,7.70
2018-08-18T06:45:12.773Z,7.53
2018-08-18T06:47:42.185Z,7.70
2018-08-18T06:50:13.171Z,6.83
2018-08-18T06:52:42.375Z,7.03
2018-08-18T06:55:17.013Z,6.93
2018-08-18T06:57:48.543Z,6.33
2018-08-18T07:00:19.908Z,6.70
2018-08-18T07:02:48.856Z,6.23
2018-08-18T07:05:18.832Z,7.50
2018-08-18T07:07:48.421Z,6.90
2018-08-18T07:10:29.564Z,6.90
2018-08-18T07:13:02.732Z,6.37
2018-08-18T07:15:34.605Z,7.13
2018-08-18T07:18:03.604Z,7.47
2018-08-18T07:20:32.575Z,6.70
2018-08-18T07:23:01.582Z,6.13
2018-08-18T07:25:30.473Z,6.30
2018-08-18T07:28:04.350Z,6.43
2018-08-18T07:30:33.391Z,6.83
2018-08-18T07:33:02.575Z,6.70
2018-08-18T07:35:31.488Z,6.60
2018-08-18T07:38:00.461Z,9.43
2018-08-18T07:40:38.723Z,6.77
2018-08-18T07:43:08.503Z,7.10
2018-08-18T07:45:37.821Z,5.90
2018-08-18T07:48:07.719Z,6.90
2018-08-18T07:50:36.727Z,6.40
2018-08-18T07:53:05.611Z,6.17
2018-08-18T07:55:34.540Z,6.30
2018-08-18T07:58:05.055Z,6.43
2018-08-18T08:00:35.071Z,6.77
2018-08-18T08:03:04.205Z,6.10
2018-08-18T08:05:33.288Z,6.07
2018-08-18T08:08:02.164Z,5.97
2018-08-18T08:10:31.168Z,6.90
2018-08-18T08:13:00.179Z,6.70
2018-08-18T08:15:29.379Z,6.27
2018-08-18T08:17:58.281Z,6.83
2018-08-18T08:20:27.084Z,6.57
2018-08-18T08:22:56.497Z,5.93
2018-08-18T08:25:25.396Z,8.30
2018-08-18T08:27:54.961Z,6.00
2018-08-18T08:30:25.103Z,6.03
2018-08-18T08:32:53.956Z,5.43
2018-08-18T08:35:22.876Z,6.20
2018-08-18T08:37:52.859Z,5.10
2018-08-18T08:40:22.708Z,5.60
2018-08-18T08:42:51.680Z,5.20
2018-08-18T08:45:21.752Z,5.70
2018-08-18T08:47:50.567Z,5.37
2018-08-18T08:50:21.370Z,5.20
2018-08-18T08:52:55.339Z,6.10
2018-08-18T08:55:25.358Z,5.13
2018-08-18T08:57:54.272Z,5.70
2018-08-18T09:00:23.214Z,5.47
2018-08-18T09:02:52.135Z,5.33
2018-08-18T09:05:21.229Z,6.03
2018-08-18T09:07:50.187Z,5.50
2018-08-18T09:10:19.183Z,5.87
2018-08-18T09:12:48.851Z,5.10
2018-08-18T09:15:18.382Z,5.50
2018-08-18T09:17:47.235Z,5.27
2018-08-18T09:20:19.208Z,5.80
2018-08-18T09:22:58.252Z,6.07
2018-08-18T09:25:28.141Z,5.20
2018-08-18T09:27:58.050Z,5.20
2018-08-18T09:30:28.221Z,5.97
2018-08-18T09:33:02.198Z,5.23
2018-08-18T09:35:33.399Z,5.20
2018-08-18T09:38:02.427Z,5.30
2018-08-18T09:40:32.483Z,4.60
2018-08-18T09:43:04.660Z,5.20
2018-08-18T09:45:33.520Z,4.83
2018-08-18T09:48:02.476Z,4.93
2018-08-18T09:50:31.345Z,5.00
2018-08-18T09:53:00.204Z,5.33
2018-08-18T09:55:29.161Z,4.93
2018-08-18T09:57:58.015Z,4.83
2018-08-18T10:00:32.064Z,4.10
2018-08-18T10:03:00.987Z,4.77
2018-08-18T10:05:30.097Z,3.97
2018-08-18T10:07:59.116Z,3.97
2018-08-18T10:10:28.096Z,4.60
2018-08-18T10:12:56.996Z,3.90
2018-08-18T10:15:26.024Z,4.03
2018-08-18T10:17:54.948Z,4.43
2018-08-18T10:20:23.964Z,5.00
2018-08-18T10:22:52.795Z,4.13
2018-08-18T10:25:21.735Z,3.67
2018-08-18T10:27:50.704Z,4.10
2018-08-18T10:30:19.699Z,4.90
2018-08-18T10:32:55.081Z,3.60
2018-08-18T10:35:30.383Z,3.87
2018-08-18T10:38:00.483Z,4.33
2018-08-18T10:40:29.372Z,3.60
2018-08-18T10:42:58.443Z,4.33
2018-08-18T10:45:27.365Z,4.07
2018-08-18T10:47:56.276Z,3.80
2018-08-18T10:51:38.717Z,3.83
2018-08-18T10:54:07.854Z,3.37
2018-08-18T10:56:36.736Z,3.13
2018-08-18T10:59:14.888Z,3.63
2018-08-18T11:02:26.401Z,3.63
2018-08-18T11:04:55.268Z,3.87
2018-08-18T11:07:24.134Z,3.80
2018-08-18T11:09:53.099Z,3.93
2018-08-18T11:12:21.984Z,4.00
2018-08-18T11:14:55.940Z,3.93
2018-08-18T11:17:25.236Z,3.73
2018-08-18T11:19:55.577Z,3.73
2018-08-18T11:22:47.998Z,4.00
2018-08-18T11:25:16.829Z,4.43
2018-08-18T11:27:45.651Z,3.30
2018-08-18T11:30:14.570Z,3.50
2018-08-18T11:32:43.543Z,4.03
2018-08-18T11:35:12.524Z,3.70
2018-08-18T11:37:52.991Z,3.50
2018-08-18T11:40:22.891Z,3.87
2018-08-18T11:42:51.983Z,5.07
2018-08-18T11:45:22.140Z,3.33
2018-08-18T11:48:05.112Z,3.70
2018-08-18T11:50:34.204Z,4.10
2018-08-18T11:53:03.867Z,4.43
2018-08-18T11:55:32.812Z,4.83
2018-08-18T11:58:04.540Z,3.97
2018-08-18T12:00:37.563Z,4.23
2018-08-18T12:03:09.968Z,4.50
2018-08-18T12:05:44.879Z,3.87
2018-08-18T12:08:14.408Z,4.17
2018-08-18T12:10:43.578Z,4.03
2018-08-18T12:13:12.507Z,4.33
2018-08-18T12:15:56.003Z,3.87
2018-08-18T12:18:27.584Z,3.87
2018-08-18T12:20:58.795Z,4.00
2018-08-18T12:23:27.873Z,4.00
2018-08-18T12:26:01.729Z,4.07
2018-08-18T12:28:35.467Z,3.93
2018-08-18T12:31:06.389Z,3.80
2018-08-18T12:33:35.269Z,4.03
2018-08-18T12:36:04.163Z,4.00
2018-08-18T12:38:33.353Z,4.60
2018-08-18T12:41:03.008Z,5.10
2018-08-18T12:43:35.286Z,5.10
2018-08-18T12:46:04.977Z,5.13
2018-08-18T12:48:36.352Z,5.47
2018-08-18T12:51:05.779Z,5.70
2018-08-18T12:53:39.748Z,5.30
2018-08-18T12:56:08.964Z,5.10
2018-08-18T12:58:37.936Z,5.13
2018-08-18T13:01:06.888Z,5.57
2018-08-18T13:03:35.821Z,5.50
2018-08-18T13:06:04.869Z,5.93
2018-08-18T13:08:33.823Z,5.63
2018-08-18T13:11:02.693Z,6.10
2018-08-18T13:13:31.931Z,6.17
2018-08-18T13:16:01.162Z,6.33
2018-08-18T13:18:30.239Z,5.80
2018-08-18T13:20:59.164Z,6.67
2018-08-18T13:23:28.136Z,6.17
2018-08-18T13:25:57.032Z,6.70
2018-08-18T13:28:25.929Z,5.80
2018-08-18T13:30:54.852Z,5.53
2018-08-18T13:33:23.651Z,5.60
2018-08-18T13:35:52.611Z,5.20
2018-08-18T13:38:30.044Z,5.67
2018-08-18T13:40:59.025Z,5.23
2018-08-18T13:43:43.980Z,5.87
2018-08-18T13:46:14.382Z,5.57
2018-08-18T13:48:51.415Z,5.57
2018-08-18T13:51:21.012Z,5.47
2018-08-18T13:53:54.951Z,5.60
2018-08-18T13:56:29.024Z,5.80
2018-08-18T13:58:58.076Z,5.50
2018-08-18T14:01:31.417Z,4.90
2018-08-18T14:04:00.310Z,5.20
2018-08-18T14:06:29.336Z,5.50
2018-08-18T14:09:02.337Z,5.70
2018-08-18T14:11:31.773Z,5.67
2018-08-18T14:14:01.839Z,5.40
2018-08-18T14:16:31.522Z,5.27
2018-08-18T14:19:00.896Z,5.70
2018-08-18T14:21:29.978Z,4.67
2018-08-18T14:23:58.872Z,5.90
2018-08-18T14:26:27.744Z,5.30
2018-08-18T14:28:56.588Z,5.30
2018-08-18T14:31:25.448Z,5.53
2018-08-18T14:33:54.396Z,5.10
2018-08-18T14:36:24.360Z,5.80
2018-08-18T14:38:53.955Z,5.53
2018-08-18T14:41:43.141Z,5.20
2018-08-18T14:44:12.101Z,6.37
2018-08-18T14:46:41.194Z,5.63
2018-08-18T14:49:10.033Z,5.80
2018-08-18T14:51:38.948Z,5.57
2018-08-18T14:54:08.686Z,5.97
2018-08-18T14:56:37.535Z,5.90
2018-08-18T14:59:06.373Z,5.80
2018-08-18T15:01:35.343Z,6.03
2018-08-18T15:04:04.148Z,5.77
2018-08-18T15:06:33.116Z,6.30
2018-08-18T15:09:02.129Z,6.30
2018-08-18T15:11:30.986Z,5.03
2018-08-18T15:13:59.873Z,5.70
2018-08-18T15:16:28.710Z,6.13
2018-08-18T15:18:57.637Z,5.07
2018-08-18T15:21:26.573Z,5.00
2018-08-18T15:23:55.484Z,6.03
2018-08-18T15:26:24.420Z,5.67
2018-08-18T15:28:53.472Z,5.33
2018-08-18T15:31:22.517Z,5.37
2018-08-18T15:33:51.372Z,5.37
2018-08-18T15:36:32.275Z,6.10
2018-08-18T15:39:01.235Z,5.97
2018-08-18T15:41:30.053Z,5.93
2018-08-18T15:43:58.993Z,5.33
2018-08-18T15:46:27.920Z,5.73
2018-08-18T15:48:57.047Z,5.97
2018-08-18T15:51:25.883Z,5.90
2018-08-18T15:53:55.928Z,5.90
2018-08-18T15:56:25.945Z,5.40
2018-08-18T15:58:55.667Z,10.80
2018-08-18T16:01:28.000Z,5.37
2018-08-18T16:03:57.944Z,5.40
2018-08-18T16:06:26.860Z,5.40
2018-08-18T16:08:56.016Z,6.00
2018-08-18T16:11:24.985Z,5.90
2018-08-18T16:13:54.085Z,6.93
2018-08-18T16:16:23.087Z,5.97
2018-08-18T16:19:00.994Z,6.80
2018-08-18T16:21:31.824Z,6.13
2018-08-18T16:24:01.024Z,7.17
2018-08-18T16:26:29.935Z,6.50
2018-08-18T16:28:58.860Z,7.43
2018-08-18T16:31:27.943Z,6.33
2018-08-18T16:33:56.778Z,6.47
2018-08-18T16:36:31.953Z,7.03
2018-08-18T16:39:01.093Z,6.87
2018-08-18T16:41:30.028Z,7.37
2018-08-18T16:43:58.975Z,7.23
2018-08-18T16:46:29.465Z,7.43
2018-08-18T16:48:58.411Z,7.53
2018-08-18T16:51:27.450Z,7.80
2018-08-18T16:53:59.123Z,6.73
2018-08-18T16:56:30.262Z,6.60
2018-08-18T16:59:00.403Z,17.30
2018-08-18T17:01:29.309Z,7.37
2018-08-18T17:03:58.170Z,7.97
2018-08-18T17:06:27.108Z,6.43
2018-08-18T17:08:55.916Z,8.70
2018-08-18T17:11:24.792Z,6.33
2018-08-18T17:13:53.674Z,5.90
2018-08-18T17:16:22.818Z,9.10
2018-08-18T17:18:51.708Z,7.30
2018-08-18T17:21:20.690Z,6.90
2018-08-18T17:23:49.643Z,7.47
2018-08-18T17:26:18.595Z,6.60
2018-08-18T17:28:47.504Z,8.00
2018-08-18T17:31:16.448Z,5.80
2018-08-18T17:33:45.469Z,7.93
2018-08-18T17:36:14.386Z,5.20
2018-08-18T17:38:43.336Z,4.43
2018-08-18T17:41:12.292Z,5.27
2018-08-18T17:43:41.141Z,5.03
2018-08-18T17:46:10.028Z,4.50
2018-08-18T17:48:44.263Z,4.87
2018-08-18T17:51:13.172Z,4.47
2018-08-18T17:53:49.184Z,4.53
2018-08-18T17:56:18.067Z,4.03
2018-08-18T17:58:47.181Z,4.37
2018-08-18T18:01:16.016Z,5.10
2018-08-18T18:03:45.007Z,4.43
2018-08-18T18:06:13.901Z,5.53
2018-08-18T18:08:42.860Z,4.07
2018-08-18T18:11:11.784Z,4.27
2018-08-18T18:13:40.688Z,4.53
2018-08-18T18:16:28.285Z,3.73
2018-08-18T18:19:00.177Z,4.13
2018-08-18T18:21:29.189Z,4.03
2018-08-18T18:23:58.204Z,3.83
2018-08-18T18:26:27.169Z,4.07
2018-08-18T18:28:56.107Z,3.90
2018-08-18T18:31:24.921Z,4.10
2018-08-18T18:34:08.172Z,4.37
2018-08-18T18:36:37.009Z,4.00
2018-08-18T18:39:06.374Z,4.07
2018-08-18T18:41:35.244Z,4.30
2018-08-18T18:44:04.644Z,4.13
2018-08-18T18:46:33.662Z,3.80
2018-08-18T18:49:03.217Z,4.37
2018-08-18T18:51:32.124Z,4.17
2018-08-18T18:54:01.096Z,3.70
2018-08-18T18:56:30.034Z,3.77
2018-08-18T18:58:58.961Z,3.50
2018-08-18T19:01:27.871Z,3.40
2018-08-18T19:03:56.897Z,3.70
2018-08-18T19:06:25.860Z,3.60
2018-08-18T19:09:00.315Z,3.73
2018-08-18T19:11:29.288Z,3.37
2018-08-18T19:13:58.610Z,3.10
2018-08-18T19:16:27.585Z,3.37
2018-08-18T19:18:56.449Z,3.57
2018-08-18T19:21:30.654Z,3.80
2018-08-18T19:23:59.620Z,4.23
2018-08-18T19:26:37.243Z,3.70
2018-08-18T19:29:06.084Z,3.40
2018-08-18T19:31:35.893Z,3.97
2018-08-18T19:34:11.764Z,3.83
2018-08-18T19:36:53.620Z,3.97
2018-08-18T19:39:23.731Z,4.00
2018-08-18T19:41:52.784Z,3.77
2018-08-18T19:44:21.637Z,3.97
2018-08-18T19:46:50.527Z,3.43
2018-08-18T19:49:30.261Z,3.73
2018-08-18T19:52:03.693Z,2.73
2018-08-18T19:54:32.621Z,3.43
2018-08-18T19:57:01.601Z,3.27
2018-08-18T19:59:30.484Z,3.70
2018-08-18T20:01:59.674Z,3.53
2018-08-18T20:04:28.779Z,3.37
2018-08-18T20:06:57.950Z,3.40
2018-08-18T20:09:27.094Z,3.90
2018-08-18T20:11:56.043Z,3.67
2018-08-18T20:14:25.008Z,3.20
2018-08-18T20:16:53.947Z,3.53
2018-08-18T20:19:22.887Z,4.07
2018-08-18T20:21:51.711Z,3.60
2018-08-18T20:24:20.620Z,4.10
2018-08-18T20:26:49.577Z,4.53
2018-08-18T20:29:18.411Z,3.60
2018-08-18T20:32:00.013Z,3.57
2018-08-18T20:34:29.287Z,3.67
2018-08-18T20:36:58.115Z,3.60
2018-08-18T20:39:29.971Z,5.93
2018-08-18T20:41:59.095Z,5.10
2018-08-18T20:44:29.272Z,4.30
2018-08-18T20:46:58.536Z,5.03
2018-08-18T20:49:27.898Z,6.67
2018-08-18T20:51:56.848Z,5.43
2018-08-18T20:54:25.769Z,5.17
2018-08-18T20:56:54.598Z,3.80
2018-08-18T20:59:23.562Z,4.83
2018-08-18T21:01:52.593Z,4.20
2018-08-18T21:04:21.411Z,4.03
2018-08-18T21:06:50.283Z,4.47
2018-08-18T21:09:26.771Z,3.50
2018-08-18T21:11:55.706Z,3.87
2018-08-18T21:14:27.221Z,4.30
2018-08-18T21:16:56.258Z,10.23
2018-08-18T21:19:26.032Z,4.20
2018-08-18T21:21:55.881Z,4.30
2018-08-18T21:24:24.771Z,5.50
2018-08-18T21:26:53.745Z,5.00
2018-08-18T21:29:24.448Z,5.87
2018-08-18T21:31:53.287Z,4.50
2018-08-18T21:34:22.261Z,5.83
2018-08-18T21:36:51.139Z,5.70
2018-08-18T21:39:20.039Z,5.27
2018-08-18T21:41:49.291Z,6.30
2018-08-18T21:44:18.215Z,5.73
2018-08-18T21:46:47.164Z,7.67
2018-08-18T21:49:15.967Z,8.17
2018-08-18T21:51:44.920Z,12.33
2018-08-18T21:54:13.731Z,9.57
2018-08-18T21:56:43.431Z,8.23
2018-08-18T21:59:13.664Z,8.77
2018-08-18T22:01:42.695Z,7.87
2018-08-18T22:04:11.612Z,8.20
2018-08-18T22:06:40.559Z,8.57
2018-08-18T22:09:23.060Z,7.33
2018-08-18T22:11:52.055Z,7.70
2018-08-18T22:14:20.971Z,7.97
2018-08-18T22:16:55.167Z,8.27
2018-08-18T22:19:24.147Z,6.90
2018-08-18T22:21:53.172Z,7.73
2018-08-18T22:24:22.003Z,7.67
2018-08-18T22:26:50.917Z,8.10
2018-08-18T22:29:23.803Z,7.17
2018-08-18T22:31:53.037Z,6.07
2018-08-18T22:34:21.882Z,7.27
2018-08-18T22:36:50.925Z,5.67
2018-08-18T22:39:19.824Z,4.80
2018-08-18T22:41:48.712Z,3.90
2018-08-18T22:44:17.611Z,3.80
2018-08-18T22:46:46.684Z,3.37
2018-08-18T22:49:15.700Z,3.57
2018-08-18T22:51:44.545Z,3.60
2018-08-18T22:54:13.368Z,3.37
2018-08-18T22:56:42.591Z,4.10
2018-08-18T22:59:11.801Z,3.33
2018-08-18T23:01:40.743Z,3.73
2018-08-18T23:04:27.872Z,3.77
2018-08-18T23:06:57.280Z,3.50
2018-08-18T23:09:26.331Z,3.70
2018-08-18T23:11:56.971Z,3.90
2018-08-18T23:14:25.971Z,3.67
2018-08-18T23:16:54.965Z,4.70
2018-08-18T23:19:23.785Z,4.10
2018-08-18T23:21:52.672Z,3.97
2018-08-18T23:24:31.953Z,3.93
2018-08-18T23:27:01.180Z,4.63
2018-08-18T23:29:30.170Z,5.10
2018-08-18T23:31:59.668Z,6.30
2018-08-18T23:34:28.612Z,6.33
2018-08-18T23:36:57.664Z,5.83
2018-08-18T23:39:26.510Z,6.73
2018-08-18T23:42:19.144Z,7.20
2018-08-18T23:44:48.576Z,7.27
2018-08-18T23:47:17.701Z,7.50
2018-08-18T23:49:46.768Z,7.77
2018-08-18T23:52:15.649Z,6.30
2018-08-18T23:54:44.592Z,5.93
2018-08-18T23:57:15.019Z,6.00
2018-08-18T23:59:44.227Z,6.20
